createdAt,value
2023-04-05T00:00:27.613Z,80.20
2023-04-05T00:02:58.028Z,80.20
2023-04-05T00:05:30.698Z,80.10
2023-04-05T00:08:00.612Z,79.80
2023-04-05T00:10:29.033Z,79.60
2023-04-05T00:12:55.882Z,79.30
2023-04-05T00:15:23.406Z,79.40
2023-04-05T00:17:50.516Z,79.10
2023-04-05T00:20:17.295Z,79.50
2023-04-05T00:22:44.737Z,79.30
2023-04-05T00:25:11.896Z,79.40
2023-04-05T00:27:42.822Z,79.80
2023-04-05T00:30:09.947Z,79.60
2023-04-05T00:32:36.782Z,79.50
2023-04-05T00:35:04.195Z,80.20
2023-04-05T00:37:30.905Z,80.80
2023-04-05T00:39:57.621Z,80.00
2023-04-05T00:42:24.316Z,80.50
2023-04-05T00:44:51.246Z,81.30
2023-04-05T00:47:18.143Z,81.90
2023-04-05T00:49:45.605Z,82.50
2023-04-05T00:52:13.032Z,82.90
2023-04-05T00:54:39.819Z,83.30
2023-04-05T00:57:07.344Z,83.90
2023-04-05T00:59:34.144Z,85.00
2023-04-05T01:02:34.370Z,85.00
2023-04-05T01:05:16.971Z,84.70
2023-04-05T01:08:09.730Z,84.90
2023-04-05T01:10:44.171Z,86.20
2023-04-05T01:13:11.332Z,87.80
2023-04-05T01:15:38.474Z,89.80
2023-04-05T01:18:05.893Z,91.00
2023-04-05T01:20:45.709Z,91.30
2023-04-05T01:23:59.748Z,91.60
2023-04-05T01:27:02.168Z,91.80
2023-04-05T01:30:31.912Z,92.20
2023-04-05T01:33:17.045Z,92.60
2023-04-05T01:35:55.130Z,93.00
2023-04-05T01:38:28.125Z,93.50
2023-04-05T01:40:55.285Z,94.10
2023-04-05T01:43:22.117Z,94.20
2023-04-05T01:45:49.138Z,95.10
2023-04-05T01:48:16.264Z,95.60
2023-04-05T01:50:43.512Z,95.80
2023-04-05T01:53:10.778Z,96.20
2023-04-05T01:55:37.786Z,96.30
2023-04-05T01:58:04.605Z,96.40
2023-04-05T02:00:31.419Z,96.50
2023-04-05T02:02:58.280Z,96.60
2023-04-05T02:05:25.142Z,96.50
2023-04-05T02:07:52.053Z,96.80
2023-04-05T02:10:20.277Z,96.70
2023-04-05T02:12:47.034Z,96.50
2023-04-05T02:15:13.918Z,96.30
2023-04-05T02:17:45.906Z,96.40
2023-04-05T02:20:14.493Z,96.60
2023-04-05T02:22:45.181Z,96.40
2023-04-05T02:25:12.872Z,96.70
2023-04-05T02:27:39.717Z,96.50
2023-04-05T02:30:07.496Z,96.50
2023-04-05T02:32:34.409Z,96.50
2023-04-05T02:35:01.446Z,96.70
2023-04-05T02:37:28.406Z,96.80
2023-04-05T02:39:55.209Z,96.80
2023-04-05T02:42:22.072Z,96.80
2023-04-05T02:44:49.222Z,96.90
2023-04-05T02:47:21.237Z,96.90
2023-04-05T02:49:51.232Z,97.20
2023-04-05T02:52:18.030Z,96.90
2023-04-05T02:54:46.610Z,96.80
2023-04-05T02:57:13.776Z,96.80
2023-04-05T02:59:40.724Z,96.70
2023-04-05T03:02:09.520Z,97.00
2023-04-05T03:04:36.859Z,97.40
2023-04-05T03:07:04.783Z,97.30
2023-04-05T03:09:34.750Z,97.10
2023-04-05T03:12:05.285Z,97.70
2023-04-05T03:14:33.024Z,98.10
2023-04-05T03:16:59.913Z,98.30
2023-04-05T03:19:27.031Z,98.50
2023-04-05T03:21:53.879Z,98.90
2023-04-05T03:24:21.247Z,99.40
2023-04-05T03:26:49.089Z,99.40
2023-04-05T03:29:17.212Z,99.80
2023-04-05T03:31:45.788Z,99.80
2023-04-05T03:34:12.599Z,99.40
2023-04-05T03:36:42.373Z,99.50
2023-04-05T03:39:11.363Z,99.80
2023-04-05T03:41:41.563Z,99.90
2023-04-05T03:44:09.469Z,99.90
2023-04-05T03:46:37.947Z,99.90
2023-04-05T03:49:06.178Z,99.90
2023-04-05T03:51:33.395Z,99.90
2023-04-05T03:54:00.324Z,99.90
2023-04-05T03:56:27.212Z,99.90
2023-04-05T03:58:54.170Z,99.90
2023-04-05T04:01:21.402Z,99.90
2023-04-05T04:03:48.146Z,99.90
2023-04-05T04:06:17.141Z,99.90
2023-04-05T04:08:45.912Z,99.90
2023-04-05T04:11:12.689Z,99.90
2023-04-05T04:13:39.441Z,99.90
2023-04-05T04:16:06.365Z,99.90
2023-04-05T04:18:33.419Z,99.90
2023-04-05T04:21:06.706Z,99.90
2023-04-05T04:23:34.537Z,99.90
2023-04-05T04:26:01.673Z,99.90
2023-04-05T04:28:29.809Z,99.90
2023-04-05T04:30:56.523Z,99.90
2023-04-05T04:33:24.014Z,99.90
2023-04-05T04:35:54.578Z,99.90
2023-04-05T04:38:21.586Z,99.90
2023-04-05T04:40:50.733Z,99.90
2023-04-05T04:43:17.629Z,99.90
2023-04-05T04:45:48.567Z,99.90
2023-04-05T04:48:16.693Z,99.90
2023-04-05T04:50:45.333Z,99.90
2023-04-05T04:53:13.630Z,99.90
2023-04-05T04:55:43.487Z,99.90
2023-04-05T04:58:12.760Z,99.90
2023-04-05T05:00:44.324Z,99.90
2023-04-05T05:03:12.424Z,99.90
2023-04-05T05:05:47.178Z,99.90
2023-04-05T05:08:14.271Z,99.90
2023-04-05T05:10:41.199Z,99.90
2023-04-05T05:13:08.464Z,99.90
2023-04-05T05:15:35.288Z,99.90
2023-04-05T05:18:03.342Z,99.90
2023-04-05T05:20:30.272Z,99.90
2023-04-05T05:22:59.047Z,99.90
2023-04-05T05:25:26.004Z,99.90
2023-04-05T05:27:52.852Z,99.90
2023-04-05T05:30:20.933Z,99.90
2023-04-05T05:32:48.377Z,99.90
2023-04-05T05:35:15.278Z,99.90
2023-04-05T05:37:42.011Z,99.90
2023-04-05T05:40:09.970Z,99.90
2023-04-05T05:42:36.745Z,99.90
2023-04-05T05:45:05.999Z,99.90
2023-04-05T05:47:33.003Z,99.90
2023-04-05T05:49:59.819Z,99.90
2023-04-05T05:52:26.708Z,99.90
2023-04-05T05:54:53.429Z,99.90
2023-04-05T05:57:20.311Z,99.90
2023-04-05T05:59:47.094Z,99.90
2023-04-05T06:02:14.285Z,99.90
2023-04-05T06:04:41.805Z,99.90
2023-04-05T06:07:08.655Z,99.90
2023-04-05T06:09:35.595Z,99.90
2023-04-05T06:12:02.820Z,99.90
2023-04-05T06:14:32.210Z,99.90
2023-04-05T06:16:59.043Z,99.90
2023-04-05T06:19:25.761Z,99.90
2023-04-05T06:21:52.640Z,99.90
2023-04-05T06:24:22.464Z,99.90
2023-04-05T06:26:51.785Z,99.90
2023-04-05T06:29:18.527Z,99.90
2023-04-05T06:31:46.890Z,99.90
2023-04-05T06:34:13.731Z,99.90
2023-04-05T06:36:41.479Z,99.90
2023-04-05T06:39:08.559Z,99.90
2023-04-05T06:41:35.288Z,99.90
2023-04-05T06:44:02.050Z,99.90
2023-04-05T06:46:29.080Z,99.90
2023-04-05T06:48:55.950Z,99.90
2023-04-05T06:51:22.711Z,99.40
2023-04-05T06:53:49.455Z,99.50
2023-04-05T06:56:16.474Z,98.40
2023-04-05T06:58:44.016Z,97.10
2023-04-05T07:01:11.238Z,96.70
2023-04-05T07:03:38.028Z,96.10
2023-04-05T07:06:05.057Z,95.70
2023-04-05T07:08:33.035Z,94.60
2023-04-05T07:10:59.852Z,94.30
2023-04-05T07:13:26.645Z,93.50
2023-04-05T07:16:00.774Z,92.80
2023-04-05T07:18:28.167Z,92.30
2023-04-05T07:21:01.850Z,91.60
2023-04-05T07:23:29.351Z,91.10
2023-04-05T07:26:05.548Z,90.40
2023-04-05T07:28:35.226Z,90.40
2023-04-05T07:31:03.811Z,87.70
2023-04-05T07:33:30.782Z,86.10
2023-04-05T07:35:57.934Z,84.10
2023-04-05T07:38:25.709Z,82.20
2023-04-05T07:40:52.583Z,80.10
2023-04-05T07:43:19.647Z,78.70
2023-04-05T07:45:46.433Z,76.80
2023-04-05T07:48:13.206Z,74.60
2023-04-05T07:50:41.006Z,71.70
2023-04-05T07:53:08.211Z,69.70
2023-04-05T07:55:38.567Z,65.60
2023-04-05T07:58:05.446Z,64.90
2023-04-05T08:00:32.287Z,59.90
2023-04-05T08:03:01.825Z,56.20
2023-04-05T08:05:29.165Z,56.20
2023-04-05T08:07:57.984Z,55.60
2023-04-05T08:10:25.573Z,54.40
2023-04-05T08:12:53.039Z,54.00
2023-04-05T08:15:19.821Z,53.30
2023-04-05T08:17:46.728Z,52.70
2023-04-05T08:20:13.529Z,52.10
2023-04-05T08:22:40.301Z,50.80
2023-04-05T08:25:08.083Z,49.10
2023-04-05T08:27:34.982Z,48.70
2023-04-05T08:30:01.872Z,47.60
2023-04-05T08:32:28.631Z,47.90
2023-04-05T08:34:55.446Z,48.90
2023-04-05T08:37:22.264Z,47.50
2023-04-05T08:39:48.980Z,47.00
2023-04-05T08:42:19.127Z,47.00
2023-04-05T08:44:51.431Z,46.90
2023-04-05T08:47:20.607Z,46.70
2023-04-05T08:49:47.542Z,45.60
2023-04-05T08:52:14.362Z,44.40
2023-04-05T08:54:41.575Z,43.60
2023-04-05T08:57:10.002Z,43.40
2023-04-05T08:59:40.981Z,44.40
2023-04-05T09:02:19.175Z,44.30
2023-04-05T09:04:48.533Z,44.00
2023-04-05T09:07:15.432Z,43.70
2023-04-05T09:09:48.490Z,43.40
2023-04-05T09:12:15.700Z,42.50
2023-04-05T09:14:43.635Z,42.10
2023-04-05T09:17:11.194Z,41.30
2023-04-05T09:19:38.025Z,41.10
2023-04-05T09:22:07.562Z,40.00
2023-04-05T09:24:41.864Z,40.40
2023-04-05T09:27:19.662Z,40.70
2023-04-05T09:29:49.000Z,40.20
2023-04-05T09:32:21.340Z,40.00
2023-04-05T09:34:49.886Z,39.80
2023-04-05T09:37:20.142Z,41.50
2023-04-05T09:39:50.578Z,42.90
2023-04-05T09:42:22.545Z,40.80
2023-04-05T09:45:05.081Z,39.70
2023-04-05T09:47:36.895Z,38.90
2023-04-05T09:50:13.829Z,38.40
2023-04-05T09:52:40.763Z,38.50
2023-04-05T09:55:08.690Z,38.90
2023-04-05T09:57:38.354Z,39.50
2023-04-05T10:00:09.956Z,41.00
2023-04-05T10:02:39.337Z,41.80
2023-04-05T10:05:11.547Z,43.50
2023-04-05T10:07:45.636Z,40.20
2023-04-05T10:10:13.591Z,39.40
2023-04-05T10:12:41.876Z,38.00
2023-04-05T10:15:11.095Z,38.40
2023-04-05T10:17:49.153Z,38.30
2023-04-05T10:20:24.697Z,38.90
2023-04-05T10:23:10.012Z,39.60
2023-04-05T10:25:53.223Z,39.50
2023-04-05T10:28:35.503Z,38.10
2023-04-05T10:31:45.711Z,37.50
2023-04-05T10:34:43.086Z,39.00
2023-04-05T10:37:35.955Z,40.40
2023-04-05T10:40:08.090Z,40.10
2023-04-05T10:42:43.991Z,37.00
2023-04-05T10:45:15.518Z,37.10
2023-04-05T10:47:55.152Z,37.20
2023-04-05T10:50:26.250Z,37.10
2023-04-05T10:52:53.574Z,35.50
2023-04-05T10:55:21.771Z,35.90
2023-04-05T10:57:50.521Z,37.60
2023-04-05T11:00:18.953Z,38.50
2023-04-05T11:02:47.234Z,38.70
2023-04-05T11:05:40.541Z,37.80
2023-04-05T11:08:11.497Z,38.00
2023-04-05T11:10:39.786Z,38.40
2023-04-05T11:13:08.723Z,39.40
2023-04-05T11:15:36.941Z,39.80
2023-04-05T11:18:18.712Z,40.20
2023-04-05T11:21:06.231Z,39.50
2023-04-05T11:23:39.708Z,36.50
2023-04-05T11:26:06.884Z,35.60
2023-04-05T11:28:41.872Z,34.30
2023-04-05T11:31:19.786Z,34.20
2023-04-05T11:34:00.045Z,33.90
2023-04-05T11:36:45.853Z,31.50
2023-04-05T11:39:18.446Z,33.00
2023-04-05T11:42:17.798Z,32.50
2023-04-05T11:44:51.366Z,31.70
2023-04-05T11:47:21.594Z,31.10
2023-04-05T11:49:52.022Z,31.40
2023-04-05T11:52:21.682Z,32.50
2023-04-05T11:54:49.640Z,30.90
2023-04-05T11:57:22.655Z,30.60
2023-04-05T11:59:53.655Z,30.60
2023-04-05T12:02:22.077Z,31.00
2023-04-05T12:04:57.449Z,31.60
2023-04-05T12:07:32.805Z,30.40
2023-04-05T12:10:16.559Z,29.30
2023-04-05T12:12:45.317Z,29.50
2023-04-05T12:15:37.441Z,29.30
2023-04-05T12:18:04.704Z,31.80
2023-04-05T12:20:33.212Z,31.60
2023-04-05T12:23:00.256Z,31.20
2023-04-05T12:25:27.430Z,30.30
2023-04-05T12:27:54.222Z,29.80
2023-04-05T12:30:24.078Z,29.30
2023-04-05T12:32:53.654Z,29.10
2023-04-05T12:35:34.818Z,28.50
2023-04-05T12:38:03.448Z,30.40
2023-04-05T12:40:30.943Z,30.10
2023-04-05T12:43:09.062Z,30.20
2023-04-05T12:45:43.864Z,30.20
2023-04-05T12:48:15.991Z,31.70
2023-04-05T12:50:48.562Z,32.80
2023-04-05T12:53:25.217Z,32.50
2023-04-05T12:55:54.872Z,32.60
2023-04-05T12:58:32.519Z,33.50
2023-04-05T13:00:59.368Z,31.20
2023-04-05T13:03:27.715Z,30.80
2023-04-05T13:05:54.567Z,30.00
2023-04-05T13:08:21.540Z,30.60
2023-04-05T13:10:50.147Z,30.90
2023-04-05T13:13:18.167Z,31.20
2023-04-05T13:15:45.786Z,31.00
2023-04-05T13:18:14.872Z,28.40
2023-04-05T13:20:45.563Z,28.10
2023-04-05T13:23:13.046Z,28.20
2023-04-05T13:25:47.127Z,28.10
2023-04-05T13:28:14.623Z,27.30
2023-04-05T13:30:41.674Z,28.50
2023-04-05T13:33:08.539Z,27.30
2023-04-05T13:35:35.657Z,27.10
2023-04-05T13:38:04.493Z,28.80
2023-04-05T13:40:32.610Z,27.50
2023-04-05T13:42:59.572Z,27.20
2023-04-05T13:45:27.609Z,28.70
2023-04-05T13:47:54.663Z,26.40
2023-04-05T13:50:21.417Z,26.50
2023-04-05T13:52:48.321Z,28.30
2023-04-05T13:55:15.446Z,28.10
2023-04-05T13:57:42.283Z,28.80
2023-04-05T14:00:10.357Z,28.50
2023-04-05T14:02:37.596Z,27.70
2023-04-05T14:05:05.903Z,27.70
2023-04-05T14:07:33.312Z,27.30
2023-04-05T14:10:00.291Z,26.30
2023-04-05T14:12:27.131Z,27.00
2023-04-05T14:14:53.879Z,27.90
2023-04-05T14:17:20.711Z,27.50
2023-04-05T14:19:47.542Z,26.50
2023-04-05T14:22:14.349Z,26.90
2023-04-05T14:24:41.102Z,27.50
2023-04-05T14:27:07.879Z,27.40
2023-04-05T14:29:34.658Z,28.60
2023-04-05T14:32:01.524Z,28.90
2023-04-05T14:34:28.349Z,28.90
2023-04-05T14:36:58.196Z,28.50
2023-04-05T14:39:25.162Z,28.60
2023-04-05T14:41:52.993Z,28.00
2023-04-05T14:44:19.942Z,27.70
2023-04-05T14:46:47.449Z,27.80
2023-04-05T14:49:15.320Z,29.10
2023-04-05T14:51:42.124Z,28.80
2023-04-05T14:54:08.946Z,27.60
2023-04-05T14:56:35.758Z,27.80
2023-04-05T14:59:02.612Z,27.60
2023-04-05T15:01:29.969Z,25.80
2023-04-05T15:03:56.839Z,25.50
2023-04-05T15:06:23.622Z,26.20
2023-04-05T15:08:51.275Z,25.90
2023-04-05T15:11:18.094Z,24.50
2023-04-05T15:13:44.847Z,23.60
2023-04-05T15:16:11.680Z,24.10
2023-04-05T15:18:38.782Z,24.60
2023-04-05T15:21:07.325Z,24.70
2023-04-05T15:23:34.267Z,25.00
2023-04-05T15:26:01.012Z,22.70
2023-04-05T15:28:27.775Z,21.60
2023-04-05T15:30:54.609Z,21.60
2023-04-05T15:33:21.401Z,22.40
2023-04-05T15:35:48.213Z,21.70
2023-04-05T15:38:14.971Z,21.60
2023-04-05T15:40:41.845Z,21.80
2023-04-05T15:43:09.772Z,22.20
2023-04-05T15:45:36.664Z,21.00
2023-04-05T15:48:03.613Z,20.10
2023-04-05T15:50:30.660Z,20.80
2023-04-05T15:52:57.694Z,21.50
2023-04-05T15:55:24.445Z,22.70
2023-04-05T15:57:54.499Z,23.40
2023-04-05T16:00:22.581Z,23.60
2023-04-05T16:02:49.563Z,22.60
2023-04-05T16:05:16.725Z,23.30
2023-04-05T16:07:44.609Z,25.80
2023-04-05T16:10:11.984Z,26.10
2023-04-05T16:12:38.941Z,26.00
2023-04-05T16:15:06.506Z,26.00
2023-04-05T16:17:33.432Z,26.70
2023-04-05T16:20:00.278Z,27.50
2023-04-05T16:22:27.101Z,27.80
2023-04-05T16:24:53.959Z,29.30
2023-04-05T16:27:20.703Z,29.30
2023-04-05T16:29:47.805Z,29.80
2023-04-05T16:32:14.785Z,29.40
2023-04-05T16:34:42.421Z,28.10
2023-04-05T16:37:09.234Z,27.20
2023-04-05T16:39:36.121Z,27.00
2023-04-05T16:42:03.107Z,27.00
2023-04-05T16:44:32.120Z,26.80
2023-04-05T16:46:59.230Z,26.80
2023-04-05T16:49:26.003Z,26.80
2023-04-05T16:51:53.314Z,26.80
2023-04-05T16:54:21.330Z,27.40
2023-04-05T16:56:48.161Z,28.00
2023-04-05T16:59:15.015Z,28.20
2023-04-05T17:01:41.922Z,27.70
2023-04-05T17:04:08.744Z,28.20
2023-04-05T17:06:35.523Z,28.70
2023-04-05T17:09:03.371Z,29.00
2023-04-05T17:11:30.583Z,29.40
2023-04-05T17:13:59.254Z,29.90
2023-04-05T17:16:26.526Z,30.70
2023-04-05T17:18:53.428Z,31.70
2023-04-05T17:21:20.348Z,33.00
2023-04-05T17:23:47.279Z,33.60
2023-04-05T17:26:14.087Z,33.80
2023-04-05T17:28:40.956Z,34.00
2023-04-05T17:31:07.922Z,35.30
2023-04-05T17:33:34.891Z,36.50
2023-04-05T17:36:01.933Z,37.60
2023-04-05T17:38:29.442Z,37.80
2023-04-05T17:40:57.630Z,38.40
2023-04-05T17:43:24.565Z,38.90
2023-04-05T17:45:51.779Z,39.10
2023-04-05T17:48:19.033Z,40.10
2023-04-05T17:50:46.432Z,40.90
2023-04-05T17:53:15.921Z,41.80
2023-04-05T17:55:43.411Z,43.10
2023-04-05T17:58:10.584Z,42.60
2023-04-05T18:00:37.484Z,42.90
2023-04-05T18:03:08.342Z,42.80
2023-04-05T18:05:35.519Z,43.30
2023-04-05T18:08:02.287Z,43.80
2023-04-05T18:10:29.133Z,43.40
2023-04-05T18:12:56.302Z,43.60
2023-04-05T18:15:23.310Z,44.50
2023-04-05T18:17:50.140Z,44.80
2023-04-05T18:20:17.092Z,45.20
2023-04-05T18:22:43.967Z,45.80
2023-04-05T18:25:11.764Z,47.00
2023-04-05T18:27:39.623Z,47.70
2023-04-05T18:30:07.399Z,47.80
2023-04-05T18:32:34.247Z,48.00
2023-04-05T18:35:01.071Z,48.20
2023-04-05T18:37:27.927Z,49.20
2023-04-05T18:39:54.692Z,49.60
2023-04-05T18:42:21.606Z,49.80
2023-04-05T18:44:49.169Z,50.70
2023-04-05T18:47:16.094Z,51.10
2023-04-05T18:49:42.892Z,51.30
2023-04-05T18:52:10.331Z,51.70
2023-04-05T18:54:38.602Z,52.30
2023-04-05T18:57:07.135Z,52.50
2023-04-05T18:59:33.885Z,52.40
2023-04-05T19:02:00.967Z,52.20
2023-04-05T19:04:27.825Z,52.20
2023-04-05T19:06:55.198Z,52.40
2023-04-05T19:09:22.228Z,53.20
2023-04-05T19:11:49.204Z,54.30
2023-04-05T19:14:16.565Z,54.70
2023-04-05T19:16:43.309Z,55.10
2023-04-05T19:19:10.262Z,55.50
2023-04-05T19:21:37.188Z,55.90
2023-04-05T19:24:04.338Z,56.20
2023-04-05T19:26:32.157Z,56.40
2023-04-05T19:28:59.037Z,56.80
2023-04-05T19:31:26.418Z,57.00
2023-04-05T19:33:53.352Z,56.90
2023-04-05T19:36:20.101Z,56.60
2023-04-05T19:38:46.966Z,56.90
2023-04-05T19:41:13.727Z,57.50
2023-04-05T19:43:41.162Z,57.50
2023-04-05T19:46:12.194Z,57.80
2023-04-05T19:48:41.848Z,58.30
2023-04-05T19:51:11.720Z,58.30
2023-04-05T19:53:49.667Z,58.20
2023-04-05T19:56:31.108Z,58.50
2023-04-05T19:59:08.494Z,58.90
2023-04-05T20:01:39.166Z,59.30
2023-04-05T20:04:15.543Z,59.50
2023-04-05T20:06:51.223Z,59.40
2023-04-05T20:09:20.065Z,59.50
2023-04-05T20:12:08.295Z,59.60
2023-04-05T20:14:45.633Z,59.80
2023-04-05T20:17:14.364Z,60.00
2023-04-05T20:19:56.714Z,60.80
2023-04-05T20:22:24.341Z,61.90
2023-04-05T20:24:51.980Z,61.80
2023-04-05T20:27:18.780Z,61.80
2023-04-05T20:29:46.048Z,62.40
2023-04-05T20:32:13.943Z,62.90
2023-04-05T20:34:43.677Z,63.30
2023-04-05T20:37:12.914Z,63.10
2023-04-05T20:39:39.728Z,62.90
2023-04-05T20:42:07.517Z,63.00
2023-04-05T20:44:34.259Z,63.20
2023-04-05T20:47:01.257Z,63.70
2023-04-05T20:49:28.906Z,64.20
2023-04-05T20:51:57.113Z,64.20
2023-04-05T20:54:24.254Z,64.60
2023-04-05T20:56:51.173Z,64.90
2023-04-05T20:59:17.991Z,65.40
2023-04-05T21:01:47.010Z,65.60
2023-04-05T21:04:14.429Z,66.20
2023-04-05T21:06:42.150Z,66.20
2023-04-05T21:09:09.161Z,66.60
2023-04-05T21:11:36.500Z,66.50
2023-04-05T21:14:03.282Z,66.30
2023-04-05T21:16:30.390Z,66.80
2023-04-05T21:18:57.306Z,67.40
2023-04-05T21:21:24.095Z,67.90
2023-04-05T21:23:50.952Z,67.50
2023-04-05T21:26:17.750Z,68.00
2023-04-05T21:28:44.511Z,68.60
2023-04-05T21:31:11.455Z,69.10
2023-04-05T21:33:38.203Z,69.60
2023-04-05T21:36:05.145Z,71.00
2023-04-05T21:38:31.997Z,71.40
2023-04-05T21:40:58.760Z,73.10
2023-04-05T21:43:25.753Z,74.30
2023-04-05T21:45:52.945Z,74.50
2023-04-05T21:48:19.894Z,75.40
2023-04-05T21:50:46.756Z,75.90
2023-04-05T21:53:14.446Z,76.70
2023-04-05T21:55:41.239Z,77.80
2023-04-05T21:58:08.088Z,79.00
2023-04-05T22:00:34.933Z,80.20
2023-04-05T22:03:01.805Z,79.60
2023-04-05T22:05:37.279Z,81.00
2023-04-05T22:08:06.303Z,82.20
2023-04-05T22:10:34.408Z,83.40
2023-04-05T22:13:01.292Z,84.40
2023-04-05T22:15:28.096Z,84.70
2023-04-05T22:17:54.863Z,85.90
2023-04-05T22:20:21.717Z,85.90
2023-04-05T22:22:48.489Z,86.30
2023-04-05T22:25:15.460Z,86.20
2023-04-05T22:27:42.218Z,87.10
2023-04-05T22:30:09.816Z,87.30
2023-04-05T22:32:36.605Z,87.40
2023-04-05T22:35:04.411Z,88.30
2023-04-05T22:37:35.494Z,88.50
2023-04-05T22:40:05.094Z,88.90
2023-04-05T22:42:32.099Z,88.80
2023-04-05T22:44:59.104Z,89.20
2023-04-05T22:47:26.112Z,90.00
2023-04-05T22:49:53.198Z,90.10
2023-04-05T22:52:20.312Z,90.40
2023-04-05T22:54:47.137Z,90.40
2023-04-05T22:57:13.902Z,90.60
2023-04-05T22:59:40.789Z,90.50
2023-04-05T23:02:08.031Z,90.90
2023-04-05T23:04:34.845Z,90.90
2023-04-05T23:07:01.625Z,91.10
2023-04-05T23:09:28.435Z,91.70
2023-04-05T23:11:55.341Z,91.70
2023-04-05T23:14:22.157Z,92.00
2023-04-05T23:16:48.912Z,92.30
2023-04-05T23:19:16.533Z,92.20
2023-04-05T23:21:43.363Z,92.40
2023-04-05T23:24:10.791Z,92.70
2023-04-05T23:26:37.950Z,92.80
2023-04-05T23:29:04.686Z,92.60
2023-04-05T23:31:31.684Z,92.30
2023-04-05T23:33:58.595Z,92.40
2023-04-05T23:36:25.947Z,92.90
2023-04-05T23:38:52.706Z,93.30
2023-04-05T23:41:19.488Z,93.30
2023-04-05T23:43:46.344Z,93.00
2023-04-05T23:46:13.567Z,92.60
2023-04-05T23:48:40.478Z,92.80
2023-04-05T23:51:07.371Z,93.20
2023-04-05T23:53:34.140Z,93.50
2023-04-05T23:56:01.080Z,94.20
2023-04-05T23:58:28.171Z,94.30
